Time;durP1;ratioP1;P1;durP2;ratioP2;P2;SDS_P1;SDS_P2;PMS_P1;PMS_P2;Temp;Humidity;BMP_temperature;BMP_pressure;BME280_temperature;BME280_humidity;BME280_pressure;Samples;Min_cycle;Max_cycle;Signal;HPM_P1;HPM_P2
2023/12/05 00:01:52;;;;;;;1.00;1.00;;;;;;;3.04;79.27;97384.97;5033724;28;20041;-77
2023/12/05 00:04:17;;;;;;;0.90;0.90;;;;;;;3.00;79.81;97377.81;5031398;28;20556;-78
2023/12/05 00:06:42;;;;;;;1.10;1.10;;;;;;;2.97;79.85;97389.16;5028820;28;20037;-77
2023/12/05 00:09:08;;;;;;;1.00;1.00;;;;;;;3.02;79.39;97399.84;5031436;28;20457;-77
2023/12/05 00:11:34;;;;;;;1.00;1.00;;;;;;;3.11;78.84;97392.25;5033310;28;20037;-77
2023/12/05 00:14:00;;;;;;;1.10;1.10;;;;;;;2.83;80.73;97393.00;5031316;28;20038;-77
2023/12/05 00:16:27;;;;;;;1.00;1.00;;;;;;;3.04;79.83;97384.97;5033550;28;20060;-76
2023/12/05 00:18:52;;;;;;;1.00;1.00;;;;;;;2.94;80.04;97380.22;5030744;28;20784;-76
2023/12/05 00:21:17;;;;;;;1.00;1.00;;;;;;;2.74;81.81;97380.38;5032839;28;20048;-76
2023/12/05 00:23:43;;;;;;;1.00;1.00;;;;;;;2.74;82.05;97390.03;5030496;28;20124;-76
2023/12/05 00:26:08;;;;;;;0.90;0.90;;;;;;;2.96;80.63;97382.06;5038574;28;20041;-76
2023/12/05 00:28:36;;;;;;;1.00;1.00;;;;;;;2.66;81.96;97391.47;5029520;28;20037;-76
2023/12/05 00:31:02;;;;;;;1.00;1.00;;;;;;;2.48;83.66;97386.38;5034983;28;20068;-76
2023/12/05 00:33:27;;;;;;;0.90;0.90;;;;;;;2.34;84.54;97395.47;5030947;28;20522;-76
2023/12/05 00:35:55;;;;;;;1.00;1.00;;;;;;;2.33;85.92;97391.03;5029652;28;20055;-77
2023/12/05 00:38:21;;;;;;;1.00;1.00;;;;;;;2.29;85.30;97390.91;5028004;28;20049;-76
2023/12/05 00:40:49;;;;;;;1.00;1.00;;;;;;;2.26;85.65;97392.56;5038264;28;20382;-77
2023/12/05 00:43:17;;;;;;;1.00;1.00;;;;;;;2.22;85.79;97388.91;5031336;28;20042;-76
2023/12/05 00:45:43;;;;;;;1.00;1.00;;;;;;;2.25;85.36;97393.38;5031869;28;20779;-76
2023/12/05 00:48:08;;;;;;;1.00;1.00;;;;;;;2.42;85.53;97396.69;5032546;28;20037;-76
2023/12/05 00:50:33;;;;;;;1.00;1.00;;;;;;;2.25;86.50;97396.91;5029902;28;20026;-76
2023/12/05 00:52:59;;;;;;;1.00;1.00;;;;;;;2.13;87.80;97388.53;5034184;28;20061;-76
2023/12/05 00:55:24;;;;;;;1.10;1.10;;;;;;;2.15;87.32;97397.34;5027219;28;20037;-76
2023/12/05 00:57:49;;;;;;;1.08;1.08;;;;;;;2.34;86.29;97380.56;5030305;28;20049;-76
2023/12/05 01:00:15;;;;;;;1.00;1.00;;;;;;;2.30;86.86;97392.72;5031862;28;20041;-76
2023/12/05 01:02:41;;;;;;;1.00;1.00;;;;;;;2.57;85.57;97384.09;5030770;28;20786;-77
2023/12/05 01:05:09;;;;;;;1.10;1.10;;;;;;;2.64;85.60;97380.88;5030692;28;20044;-77
2023/12/05 01:07:38;;;;;;;1.00;1.00;;;;;;;2.60;85.94;97384.22;5036126;28;22033;-77
2023/12/05 01:10:06;;;;;;;1.02;1.02;;;;;;;2.51;86.25;97386.50;5029620;28;20037;-77
2023/12/05 01:12:32;;;;;;;1.00;1.00;;;;;;;2.66;85.73;97381.81;5032582;28;20041;-77
2023/12/05 01:15:06;;;;;;;1.00;1.00;;;;;;;2.47;86.41;97387.22;5034414;28;20045;-76
2023/12/05 01:17:31;;;;;;;0.90;0.90;;;;;;;2.31;86.94;97393.63;5034342;28;20033;-77
2023/12/05 01:19:57;;;;;;;1.00;1.00;;;;;;;2.37;87.36;97403.50;5034303;28;20048;-77
2023/12/05 01:22:22;;;;;;;1.00;1.00;;;;;;;2.40;87.11;97394.00;5035275;28;20033;-77
2023/12/05 01:24:55;;;;;;;1.10;1.10;;;;;;;2.33;88.13;97397.19;5036279;28;20468;-77
2023/12/05 01:27:21;;;;;;;0.90;0.90;;;;;;;2.38;87.90;97400.00;5033261;28;20041;-77
2023/12/05 01:29:46;;;;;;;1.00;1.00;;;;;;;2.54;86.55;97398.06;5021386;28;20107;-77
2023/12/05 01:32:15;;;;;;;1.02;1.02;;;;;;;2.41;87.68;97401.03;5034966;28;20391;-77
2023/12/05 01:34:43;;;;;;;1.00;1.00;;;;;;;2.74;85.67;97397.91;5035109;28;20029;-77
2023/12/05 01:37:08;;;;;;;1.00;1.00;;;;;;;2.63;85.78;97392.22;5034184;28;20041;-77
2023/12/05 01:39:34;;;;;;;1.00;1.00;;;;;;;2.41;86.61;97393.16;5035561;28;20736;-77
2023/12/05 01:41:59;;;;;;;1.00;1.00;;;;;;;2.17;86.71;97407.97;5032488;28;20048;-77
2023/12/05 01:44:25;;;;;;;1.00;1.00;;;;;;;2.04;89.10;97403.94;5033604;28;20037;-77
2023/12/05 01:46:51;;;;;;;1.05;1.05;;;;;;;1.88;88.79;97404.16;5036340;28;20029;-77
2023/12/05 01:49:17;;;;;;;1.00;1.00;;;;;;;1.61;89.75;97403.88;5036431;28;20033;-76
2023/12/05 01:51:43;;;;;;;1.10;1.10;;;;;;;1.60;91.04;97405.63;5032705;28;20037;-77
2023/12/05 01:54:09;;;;;;;1.00;1.00;;;;;;;1.32;89.87;97414.06;5034329;28;20048;-77
2023/12/05 01:56:35;;;;;;;1.10;1.10;;;;;;;1.26;90.75;97404.19;5037367;28;20033;-77
2023/12/05 01:59:01;;;;;;;1.00;1.00;;;;;;;1.73;90.20;97407.94;5036084;28;20402;-77
2023/12/05 02:01:27;;;;;;;1.10;1.10;;;;;;;1.63;90.55;97408.41;5032448;28;20049;-77
2023/12/05 02:03:53;;;;;;;1.00;1.00;;;;;;;1.63;90.18;97415.34;5033713;28;20033;-76
2023/12/05 02:06:19;;;;;;;1.10;1.10;;;;;;;1.90;89.17;97405.09;5036042;28;20068;-77
2023/12/05 02:08:52;;;;;;;1.10;1.10;;;;;;;1.82;89.48;97412.69;5037912;28;20945;-77
2023/12/05 02:11:17;;;;;;;1.10;1.10;;;;;;;2.05;88.47;97410.97;5032760;28;20128;-77
2023/12/05 02:13:43;;;;;;;1.10;1.10;;;;;;;1.80;88.94;97409.09;5034815;28;20124;-77
2023/12/05 02:16:37;;;;;;;1.00;1.00;;;;;;;1.91;88.76;97404.25;5039280;28;20044;-77
2023/12/05 02:19:40;;;;;;;1.00;1.00;;;;;;;1.69;89.78;97405.13;5029514;28;20052;-77
2023/12/05 02:22:28;;;;;;;1.08;1.08;;;;;;;1.43;90.38;97410.16;5041387;28;20090;-77
2023/12/05 02:25:01;;;;;;;1.10;1.10;;;;;;;1.26;91.06;97409.44;5035598;28;20043;-76
2023/12/05 02:27:44;;;;;;;1.10;1.10;;;;;;;1.20;91.19;97400.41;5033233;28;20040;-77
2023/12/05 02:30:11;;;;;;;1.10;1.10;;;;;;;1.22;91.59;97409.22;5033409;28;20055;-76
2023/12/05 02:32:37;;;;;;;1.00;1.00;;;;;;;0.98;91.35;97416.91;5037096;28;20045;-77
2023/12/05 02:35:05;;;;;;;1.00;1.00;;;;;;;0.85;91.86;97414.56;5030487;28;20060;-76
2023/12/05 02:37:55;;;;;;;1.00;1.00;;;;;;;0.76;91.58;97415.03;5034178;28;20053;-77
2023/12/05 02:40:23;;;;;;;1.00;1.00;;;;;;;0.65;92.45;97417.19;5034483;28;20061;-77
2023/12/05 02:42:51;;;;;;;0.98;0.98;;;;;;;0.66;93.04;97407.56;5033604;28;20047;-77
2023/12/05 02:45:18;;;;;;;1.10;1.10;;;;;;;0.84;92.94;97416.28;5034124;28;20068;-77
2023/12/05 02:47:55;;;;;;;1.10;1.10;;;;;;;0.76;92.93;97405.44;5019056;28;20495;-77
2023/12/05 02:50:21;;;;;;;1.10;1.10;;;;;;;0.60;92.76;97413.44;5033155;28;20037;-77
2023/12/05 02:52:46;;;;;;;1.00;1.00;;;;;;;0.57;92.73;97415.91;5031823;28;20045;-77
2023/12/05 02:55:12;;;;;;;1.00;1.00;;;;;;;0.45;93.06;97410.13;5036856;28;20033;-77
2023/12/05 02:57:37;;;;;;;1.10;1.10;;;;;;;0.39;92.90;97415.09;5034298;28;20218;-77
2023/12/05 03:00:06;;;;;;;1.05;1.05;;;;;;;0.20;92.94;97413.31;5033718;28;20047;-77
2023/12/05 03:02:31;;;;;;;1.10;1.10;;;;;;;0.01;93.46;97413.25;5031562;28;20073;-76
2023/12/05 03:04:57;;;;;;;1.10;1.10;;;;;;;-0.35;93.79;97414.13;5032196;28;20149;-77
2023/12/05 03:07:22;;;;;;;1.00;1.00;;;;;;;-0.08;93.60;97413.69;5033094;28;20726;-77
2023/12/05 03:09:48;;;;;;;1.10;1.10;;;;;;;-0.37;94.01;97421.03;5031955;28;20107;-77
2023/12/05 03:12:13;;;;;;;1.08;1.08;;;;;;;-0.34;94.32;97420.25;5032752;28;20068;-76
2023/12/05 03:14:38;;;;;;;1.10;1.10;;;;;;;-0.32;94.59;97427.38;5032016;28;20033;-76
2023/12/05 03:17:04;;;;;;;1.10;1.10;;;;;;;0.27;94.80;97438.09;5034544;28;20483;-76
2023/12/05 03:19:29;;;;;;;1.10;1.10;;;;;;;0.32;94.79;97432.25;5030344;28;20403;-76
2023/12/05 03:21:55;;;;;;;1.10;1.10;;;;;;;0.24;94.77;97439.75;5037763;28;20040;-76
2023/12/05 03:24:20;;;;;;;1.00;1.00;;;;;;;0.19;94.61;97441.25;5030110;28;20116;-76
2023/12/05 03:26:46;;;;;;;1.00;1.00;;;;;;;0.13;94.27;97451.44;5033636;28;20126;-76
2023/12/05 03:29:12;;;;;;;1.08;1.08;;;;;;;0.19;94.75;97446.50;5031237;28;20034;-79
2023/12/05 03:31:39;;;;;;;1.10;1.10;;;;;;;0.23;94.45;97443.19;5030676;28;20545;-76
2023/12/05 03:34:06;;;;;;;1.10;1.10;;;;;;;0.32;94.62;97442.72;5029970;28;20645;-76
2023/12/05 03:36:31;;;;;;;1.20;1.20;;;;;;;0.47;94.57;97440.81;5031034;28;20491;-77
2023/12/05 03:38:59;;;;;;;1.10;1.10;;;;;;;0.50;94.62;97437.47;5033601;28;20467;-77
2023/12/05 03:41:25;;;;;;;1.10;1.10;;;;;;;1.22;94.43;97431.13;5029050;28;20037;-77
2023/12/05 03:43:50;;;;;;;1.10;1.10;;;;;;;1.06;92.69;97433.03;5028362;28;20052;-77
2023/12/05 03:46:16;;;;;;;1.10;1.10;;;;;;;0.95;93.12;97435.16;5034440;28;20077;-77
2023/12/05 03:48:41;;;;;;;1.10;1.10;;;;;;;0.82;93.24;97433.72;5030475;28;20038;-77
2023/12/05 03:51:07;;;;;;;1.10;1.10;;;;;;;0.82;93.13;97440.69;5032629;28;20046;-76
2023/12/05 03:53:32;;;;;;;1.00;1.00;;;;;;;0.79;93.02;97435.28;5030647;28;20025;-76
2023/12/05 03:55:58;;;;;;;1.10;1.10;;;;;;;0.73;93.25;97446.41;5031674;28;20577;-76
2023/12/05 03:58:24;;;;;;;1.10;1.10;;;;;;;0.77;93.58;97446.63;5032448;28;20376;-77
2023/12/05 04:00:49;;;;;;;1.10;1.10;;;;;;;0.87;93.65;97440.06;5034051;28;20045;-76
2023/12/05 04:03:15;;;;;;;1.08;1.08;;;;;;;0.86;93.59;97453.09;5030011;28;20044;-76
2023/12/05 04:05:41;;;;;;;1.10;1.10;;;;;;;0.86;93.25;97440.88;5032282;28;20033;-77
2023/12/05 04:08:06;;;;;;;1.00;1.00;;;;;;;0.88;93.68;97451.47;5033115;28;20037;-77
2023/12/05 04:10:32;;;;;;;1.00;1.00;;;;;;;0.88;93.16;97436.59;5034112;28;20032;-77
2023/12/05 04:12:57;;;;;;;1.10;1.10;;;;;;;0.79;93.18;97438.81;5029147;28;20036;-77
2023/12/05 04:15:23;;;;;;;1.10;1.10;;;;;;;0.77;93.14;97433.50;5032171;28;20051;-77
2023/12/05 04:17:48;;;;;;;1.00;1.00;;;;;;;0.69;93.33;97447.09;5029408;28;20072;-77
2023/12/05 04:20:14;;;;;;;1.10;1.10;;;;;;;0.69;93.05;97447.09;5031278;28;20211;-77
2023/12/05 04:22:40;;;;;;;1.00;1.00;;;;;;;0.36;93.39;97447.31;5034607;28;20048;-77
2023/12/05 04:25:05;;;;;;;1.10;1.10;;;;;;;0.03;93.38;97446.56;5031460;28;20042;-77
2023/12/05 04:27:31;;;;;;;1.08;1.08;;;;;;;-0.03;94.23;97446.28;5028271;28;20124;-77
2023/12/05 04:29:56;;;;;;;1.10;1.10;;;;;;;0.08;94.79;97442.44;5035248;28;20033;-77
2023/12/05 04:32:22;;;;;;;1.10;1.10;;;;;;;0.21;94.73;97450.09;5031409;28;20068;-79
2023/12/05 04:34:50;;;;;;;1.10;1.10;;;;;;;0.42;94.69;97433.56;5032939;28;20065;-76
2023/12/05 04:37:15;;;;;;;1.00;1.00;;;;;;;1.02;93.39;97439.88;5031295;28;20873;-77
2023/12/05 04:39:41;;;;;;;1.10;1.10;;;;;;;1.07;93.77;97446.22;5030475;28;20487;-77
2023/12/05 04:42:06;;;;;;;1.00;1.00;;;;;;;1.72;91.92;97437.66;5031570;28;20041;-77
2023/12/05 04:44:32;;;;;;;1.10;1.10;;;;;;;2.35;89.32;97431.47;5030687;28;20037;-77
2023/12/05 04:46:58;;;;;;;1.10;1.10;;;;;;;2.47;88.45;97438.13;5030185;28;20585;-77
2023/12/05 04:49:24;;;;;;;1.10;1.10;;;;;;;2.82;86.82;97435.97;5028151;28;20048;-76
2023/12/05 04:51:49;;;;;;;1.10;1.10;;;;;;;3.01;85.41;97430.53;5029368;28;20379;-77
2023/12/05 04:54:15;;;;;;;1.00;1.00;;;;;;;2.85;85.96;97427.28;5031837;28;20552;-76
2023/12/05 04:56:41;;;;;;;1.00;1.00;;;;;;;2.92;85.83;97424.03;5029624;28;20108;-76
2023/12/05 04:59:07;;;;;;;1.00;1.00;;;;;;;3.21;84.11;97423.41;5043523;28;20096;-76
2023/12/05 05:01:32;;;;;;;1.00;1.00;;;;;;;3.31;83.75;97417.63;5028784;28;20071;-76
2023/12/05 05:03:58;;;;;;;1.00;1.00;;;;;;;3.17;84.49;97423.22;5029935;28;20034;-76
2023/12/05 05:06:23;;;;;;;1.10;1.10;;;;;;;3.36;83.50;97414.25;5032613;28;20033;-76
2023/12/05 05:08:49;;;;;;;1.00;1.00;;;;;;;3.28;83.80;97414.84;5030517;28;20337;-76
2023/12/05 05:11:14;;;;;;;1.02;1.02;;;;;;;3.27;83.84;97417.44;5029670;28;20033;-76
2023/12/05 05:13:39;;;;;;;1.00;1.00;;;;;;;3.29;83.58;97415.75;5047279;28;20041;-76
2023/12/05 05:16:09;;;;;;;1.00;1.00;;;;;;;3.23;83.71;97416.44;5032208;28;20065;-76
2023/12/05 05:18:35;;;;;;;1.00;1.00;;;;;;;3.39;83.04;97414.34;5031674;28;20045;-77
2023/12/05 05:21:00;;;;;;;1.10;1.10;;;;;;;3.48;82.20;97412.03;5027670;28;20067;-77
2023/12/05 05:23:26;;;;;;;1.00;1.00;;;;;;;3.60;82.06;97418.66;5032531;28;20044;-77
2023/12/05 05:25:52;;;;;;;0.90;0.90;;;;;;;3.59;81.83;97416.84;5032769;28;20037;-77
2023/12/05 05:28:18;;;;;;;1.00;1.00;;;;;;;3.45;82.42;97417.19;5029535;28;20041;-76
2023/12/05 05:30:43;;;;;;;1.00;1.00;;;;;;;3.54;82.29;97417.50;5028716;28;20033;-76
2023/12/05 05:33:08;;;;;;;1.00;1.00;;;;;;;3.44;82.62;97420.66;5037413;28;20070;-76
2023/12/05 05:35:34;;;;;;;1.00;1.00;;;;;;;3.54;82.23;97420.16;5013228;28;20059;-76
2023/12/05 05:37:59;;;;;;;0.90;0.90;;;;;;;3.42;82.87;97417.09;5029991;28;20493;-76
2023/12/05 05:40:26;;;;;;;0.90;0.90;;;;;;;3.42;82.95;97425.91;5031409;28;20055;-76
2023/12/05 05:42:51;;;;;;;1.10;1.10;;;;;;;3.42;82.45;97425.00;5027252;28;20502;-76
2023/12/05 05:45:17;;;;;;;0.90;0.90;;;;;;;3.29;83.00;97427.19;5030166;28;20040;-76
2023/12/05 05:47:42;;;;;;;1.00;1.00;;;;;;;3.26;82.86;97426.22;5035025;28;20040;-78
2023/12/05 05:50:08;;;;;;;1.00;1.00;;;;;;;3.04;84.05;97433.31;5034495;28;20045;-78
2023/12/05 05:52:33;;;;;;;1.08;1.08;;;;;;;3.20;83.00;97437.41;5026680;28;20385;-77
2023/12/05 05:54:59;;;;;;;0.90;0.90;;;;;;;2.92;84.32;97438.09;5028700;28;20721;-77
2023/12/05 05:57:24;;;;;;;0.90;0.90;;;;;;;2.80;84.52;97443.81;5030841;28;20448;-77
2023/12/05 05:59:49;;;;;;;1.00;1.00;;;;;;;2.99;83.94;97439.25;5032163;28;20051;-77
2023/12/05 06:02:15;;;;;;;1.00;1.00;;;;;;;2.41;85.77;97442.25;5018271;28;20827;-77
2023/12/05 06:04:44;;;;;;;1.10;1.10;;;;;;;2.38;85.88;97436.88;5031477;28;20056;-77
2023/12/05 06:07:09;;;;;;;1.00;1.00;;;;;;;2.85;84.63;97429.91;5040222;28;20037;-78
2023/12/05 06:09:35;;;;;;;1.10;1.10;;;;;;;2.59;85.25;97435.09;5031846;28;20067;-77
2023/12/05 06:12:02;;;;;;;1.05;1.05;;;;;;;2.33;85.85;97451.56;5033910;28;20407;-78
2023/12/05 06:14:28;;;;;;;1.00;1.00;;;;;;;2.45;86.49;97457.34;5031484;28;20044;-77
2023/12/05 06:16:53;;;;;;;1.00;1.00;;;;;;;2.46;86.13;97460.03;5037567;28;20053;-78
2023/12/05 06:19:19;;;;;;;1.00;1.00;;;;;;;2.63;85.34;97455.41;5032327;28;20037;-77
2023/12/05 06:21:44;;;;;;;1.00;1.00;;;;;;;2.82;84.77;97454.41;5032652;28;20029;-78
2023/12/05 06:24:11;;;;;;;1.00;1.00;;;;;;;3.01;83.71;97446.34;5030374;28;20395;-78
2023/12/05 06:26:39;;;;;;;1.00;1.00;;;;;;;2.67;84.78;97449.44;5037462;28;20139;-77
2023/12/05 06:29:05;;;;;;;1.05;1.05;;;;;;;2.34;85.63;97453.38;5032830;28;20053;-77
2023/12/05 06:31:31;;;;;;;1.05;1.05;;;;;;;2.25;85.92;97457.44;5030967;28;20592;-77
2023/12/05 06:33:59;;;;;;;1.10;1.10;;;;;;;2.17;86.52;97450.97;5029933;28;20033;-77
2023/12/05 06:36:24;;;;;;;;;;;;;;;1.72;87.77;97458.69;5030740;28;20116;-77
2023/12/05 06:38:49;;;;;;;1.10;1.10;;;;;;;1.46;88.18;97467.22;5021878;28;20052;-77
2023/12/05 06:41:15;;;;;;;0.90;0.90;;;;;;;1.31;89.13;97467.44;5031810;28;20048;-77
2023/12/05 06:43:40;;;;;;;1.08;1.08;;;;;;;1.17;89.70;97472.06;5033211;28;20402;-77
2023/12/05 06:46:06;;;;;;;1.00;1.00;;;;;;;1.10;90.59;97474.34;5033176;28;20410;-77
2023/12/05 06:48:32;;;;;;;1.10;1.10;;;;;;;1.07;90.94;97474.22;5031488;28;20586;-77
2023/12/05 06:50:58;;;;;;;1.00;1.00;;;;;;;0.96;91.48;97479.00;5031107;28;20163;-77
2023/12/05 06:53:23;;;;;;;1.10;1.10;;;;;;;1.35;91.16;97481.63;5030353;28;20595;-77
2023/12/05 06:55:49;;;;;;;1.10;1.10;;;;;;;1.90;89.46;97479.63;5035270;28;20033;-77
2023/12/05 06:58:14;;;;;;;1.02;1.02;;;;;;;1.67;89.00;97483.91;5033592;28;20041;-77
2023/12/05 07:00:40;;;;;;;1.00;1.00;;;;;;;1.87;87.99;97484.78;5023368;28;20514;-77
2023/12/05 07:03:05;;;;;;;1.10;1.10;;;;;;;2.55;85.50;97488.47;5034331;28;20387;-76
2023/12/05 07:05:31;;;;;;;1.10;1.10;;;;;;;2.30;86.06;97483.94;5032870;28;20033;-77
2023/12/05 07:07:56;;;;;;;1.10;1.10;;;;;;;2.18;86.53;97483.44;5034587;28;20075;-78
2023/12/05 07:10:23;;;;;;;1.00;1.00;;;;;;;2.53;84.82;97479.59;5028122;28;20037;-78
2023/12/05 07:12:48;;;;;;;1.00;1.00;;;;;;;2.54;84.69;97486.66;5034241;28;20118;-77
2023/12/05 07:15:14;;;;;;;1.00;1.00;;;;;;;2.36;85.10;97485.94;5032194;28;20053;-79
2023/12/05 07:17:39;;;;;;;1.00;1.00;;;;;;;2.26;85.30;97495.19;5033549;28;20102;-76
2023/12/05 07:20:06;;;;;;;1.10;1.10;;;;;;;2.03;87.06;97504.72;5033435;28;20098;-77
2023/12/05 07:22:33;;;;;;;1.10;1.10;;;;;;;2.03;87.67;97507.38;5032566;28;20101;-76
2023/12/05 07:24:58;;;;;;;1.00;1.00;;;;;;;2.15;86.91;97510.50;5034184;28;20768;-76
2023/12/05 07:27:24;;;;;;;1.00;1.00;;;;;;;2.11;87.38;97511.22;5032718;28;20131;-75
2023/12/05 07:29:49;;;;;;;1.00;1.00;;;;;;;2.02;87.45;97517.00;5031398;28;20041;-76
2023/12/05 07:32:15;;;;;;;1.02;1.02;;;;;;;2.03;87.66;97517.88;5033191;28;20455;-76
2023/12/05 07:34:41;;;;;;;1.00;1.00;;;;;;;2.13;87.62;97521.81;5034526;28;21090;-76
2023/12/05 07:37:07;;;;;;;1.10;1.10;;;;;;;2.03;88.35;97524.03;5029928;28;20037;-76
2023/12/05 07:39:35;;;;;;;1.08;1.08;;;;;;;2.26;87.34;97522.38;5031775;28;20469;-76
2023/12/05 07:42:00;;;;;;;1.02;1.02;;;;;;;2.41;86.81;97526.50;5031245;28;20049;-76
2023/12/05 07:44:27;;;;;;;1.00;1.00;;;;;;;2.43;87.40;97535.34;5033789;28;20045;-76
2023/12/05 07:46:52;;;;;;;1.00;1.00;;;;;;;2.55;86.51;97535.84;5032940;28;20032;-77
2023/12/05 07:49:18;;;;;;;1.10;1.10;;;;;;;2.65;86.31;97539.75;5033053;28;20045;-77
2023/12/05 07:51:44;;;;;;;1.00;1.00;;;;;;;3.14;83.80;97544.31;5032887;28;20041;-76
2023/12/05 07:54:09;;;;;;;0.88;0.88;;;;;;;3.18;83.55;97543.59;5034264;28;20041;-76
2023/12/05 07:56:37;;;;;;;1.00;1.00;;;;;;;3.35;83.09;97545.13;5031840;28;21458;-76
2023/12/05 07:59:05;;;;;;;1.00;1.00;;;;;;;3.54;81.87;97547.63;5031666;28;20064;-77
2023/12/05 08:01:33;;;;;;;1.00;1.00;;;;;;;3.67;80.66;97540.16;5030432;28;20044;-76
2023/12/05 08:04:01;;;;;;;1.00;1.00;;;;;;;3.69;80.29;97541.09;5038662;28;20037;-76
2023/12/05 08:06:27;;;;;;;0.80;0.80;;;;;;;3.79;80.30;97544.16;5030891;28;20055;-76
2023/12/05 08:08:52;;;;;;;0.90;0.90;;;;;;;3.94;79.48;97537.66;5033498;28;20491;-76
2023/12/05 08:11:20;;;;;;;0.93;0.93;;;;;;;3.96;79.03;97541.22;5034299;28;20037;-76
2023/12/05 08:13:47;;;;;;;;;;;;;;;4.10;78.22;97543.50;5034869;28;20049;-76
2023/12/05 08:16:13;;;;;;;0.98;0.98;;;;;;;4.16;78.70;97544.56;5038127;28;20003;-76
2023/12/05 08:18:39;;;;;;;1.00;1.00;;;;;;;4.19;78.34;97545.56;5032470;28;20111;-77
2023/12/05 08:21:05;;;;;;;1.00;1.00;;;;;;;4.30;77.92;97538.00;5031638;28;20452;-76
2023/12/05 08:23:31;;;;;;;1.00;1.00;;;;;;;4.60;77.75;97544.34;5032015;28;20091;-76
2023/12/05 08:25:56;;;;;;;1.00;1.00;;;;;;;5.22;74.19;97527.75;5031052;28;20037;-77
2023/12/05 08:28:21;;;;;;;1.00;1.00;;;;;;;5.52;72.96;97530.44;5030487;28;20029;-76
2023/12/05 08:30:47;;;;;;;0.93;0.93;;;;;;;6.08;70.95;97528.53;5033074;28;20064;-77
2023/12/05 08:33:14;;;;;;;0.90;0.90;;;;;;;6.56;69.76;97526.25;5033144;28;20388;-76
2023/12/05 08:35:39;;;;;;;0.80;0.80;;;;;;;6.18;69.74;97527.94;5030665;28;20037;-76
2023/12/05 08:38:05;;;;;;;0.80;0.80;;;;;;;5.99;70.47;97533.56;5035884;28;20393;-77
2023/12/05 08:40:30;;;;;;;0.90;0.90;;;;;;;6.24;69.59;97532.50;5016760;28;20509;-76
2023/12/05 08:42:56;;;;;;;0.90;0.90;;;;;;;6.38;70.03;97529.34;5032134;28;20036;-77
2023/12/05 08:45:21;;;;;;;0.90;0.90;;;;;;;7.98;65.59;97532.13;5035230;28;20388;-78
2023/12/05 08:47:52;;;;;;;0.90;0.90;;;;;;;7.84;63.59;97519.44;5030974;28;20060;-76
2023/12/05 08:50:18;;;;;;;0.80;0.80;;;;;;;9.10;61.23;97519.94;5034336;28;20490;-77
2023/12/05 08:52:44;;;;;;;0.80;0.80;;;;;;;9.29;60.25;97511.38;5035044;28;20041;-77
2023/12/05 08:55:10;;;;;;;0.80;0.80;;;;;;;10.54;54.85;97520.06;5031864;28;20537;-77
2023/12/05 08:57:36;;;;;;;0.70;0.70;;;;;;;9.80;55.56;97520.94;5030849;28;20123;-76
2023/12/05 09:00:04;;;;;;;0.60;0.60;;;;;;;9.68;56.63;97532.34;5033807;28;20147;-77
2023/12/05 09:02:30;;;;;;;0.52;0.52;;;;;;;9.04;57.94;97531.41;5031241;28;20041;-76
2023/12/05 09:04:56;;;;;;;0.70;0.70;;;;;;;9.63;56.89;97535.78;5031335;28;20049;-77
2023/12/05 09:07:22;;;;;;;0.60;0.60;;;;;;;9.46;57.03;97544.47;5031587;28;20045;-77
2023/12/05 09:09:47;;;;;;;0.70;0.70;;;;;;;10.71;53.57;97536.19;5033116;28;20042;-77
2023/12/05 09:12:15;;;;;;;0.60;0.60;;;;;;;10.59;52.44;97541.41;5030166;28;20045;-78
2023/12/05 09:14:42;;;;;;;0.60;0.60;;;;;;;10.58;52.56;97539.63;5033426;28;20336;-78
2023/12/05 09:17:09;;;;;;;0.50;0.50;;;;;;;9.28;56.35;97551.28;5031051;28;20049;-79
2023/12/05 09:19:37;;;;;;;0.70;0.70;;;;;;;9.49;55.62;97555.16;5016001;28;20041;-77
2023/12/05 09:22:06;;;;;;;0.60;0.60;;;;;;;8.73;58.14;97554.84;5029280;28;20543;-77
2023/12/05 09:24:34;;;;;;;0.50;0.50;;;;;;;8.58;58.27;97546.59;5031795;28;20515;-77
2023/12/05 09:27:00;;;;;;;0.70;0.70;;;;;;;9.36;56.82;97555.84;5063864;28;20167;-77
2023/12/05 09:29:25;;;;;;;0.70;0.70;;;;;;;9.13;56.50;97559.91;5033117;28;20124;-77
2023/12/05 09:31:51;;;;;;;0.70;0.70;;;;;;;9.82;54.97;97553.84;5033766;28;20095;-78
2023/12/05 09:34:16;;;;;;;0.70;0.70;;;;;;;9.57;55.94;97551.69;5036242;28;20120;-77
2023/12/05 09:36:41;;;;;;;0.60;0.60;;;;;;;9.95;54.23;97561.09;5034882;28;20069;-77
2023/12/05 09:39:07;;;;;;;0.70;0.70;;;;;;;9.61;55.55;97559.75;5034847;28;20147;-77
2023/12/05 09:41:40;;;;;;;0.70;0.70;;;;;;;10.40;52.72;97556.34;5065261;28;20041;-77
2023/12/05 09:44:08;;;;;;;0.50;0.50;;;;;;;9.73;54.18;97556.38;5039950;28;20037;-78
2023/12/05 09:46:35;;;;;;;;;;;;;;;8.88;56.32;97556.88;5034946;28;20037;-77
2023/12/05 09:49:05;;;;;;;0.60;0.60;;;;;;;9.14;55.87;97559.03;5033357;28;20336;-76
2023/12/05 09:51:33;;;;;;;0.70;0.70;;;;;;;9.78;53.66;97552.00;5068665;28;20035;-75
2023/12/05 09:53:59;;;;;;;0.80;0.80;;;;;;;9.73;54.15;97559.03;5034800;28;20470;-77
2023/12/05 09:56:26;;;;;;;0.70;0.70;;;;;;;9.81;53.56;97561.78;5033827;28;20091;-76
2023/12/05 09:58:53;;;;;;;0.80;0.80;;;;;;;10.00;53.85;97563.81;5044764;28;20041;-77
2023/12/05 10:01:19;;;;;;;0.70;0.70;;;;;;;9.37;54.20;97570.94;5035775;28;20041;-77
2023/12/05 10:03:53;;;;;;;0.70;0.70;;;;;;;10.51;51.69;97573.34;5035303;28;20045;-77
2023/12/05 10:06:20;;;;;;;0.60;0.60;;;;;;;11.09;50.56;97560.53;5036572;28;20045;-77
2023/12/05 10:08:50;;;;;;;0.70;0.70;;;;;;;10.44;51.88;97561.72;5049736;28;20127;-77
2023/12/05 10:11:16;;;;;;;0.60;0.60;;;;;;;11.27;48.95;97555.34;5034422;28;20045;-77
2023/12/05 10:13:43;;;;;;;0.60;0.60;;;;;;;10.61;51.51;97559.22;5036446;28;20041;-77
2023/12/05 10:16:10;;;;;;;0.60;0.60;;;;;;;10.55;51.07;97555.59;5036326;28;20513;-77
2023/12/05 10:18:36;;;;;;;0.70;0.70;;;;;;;11.34;49.87;97547.38;5047619;28;20052;-76
2023/12/05 10:21:01;;;;;;;0.70;0.70;;;;;;;10.25;52.54;97555.28;5035449;28;20111;-77
2023/12/05 10:23:27;;;;;;;0.60;0.60;;;;;;;11.48;49.02;97549.25;5033618;28;20467;-77
2023/12/05 10:25:53;;;;;;;0.60;0.60;;;;;;;10.75;51.52;97556.69;5063865;28;20042;-76
2023/12/05 10:28:18;;;;;;;0.68;0.68;;;;;;;9.80;53.95;97550.25;5035197;28;20455;-76
2023/12/05 10:30:44;;;;;;;0.60;0.60;;;;;;;11.94;48.54;97541.53;5032373;28;20037;-76
2023/12/05 10:33:15;;;;;;;0.60;0.60;;;;;;;11.20;49.81;97539.25;5032950;28;20115;-77
2023/12/05 10:35:42;;;;;;;0.60;0.60;;;;;;;11.07;50.17;97538.31;5032817;28;20086;-77
2023/12/05 10:38:10;;;;;;;0.50;0.50;;;;;;;11.17;50.19;97531.25;5033064;28;20032;-76
2023/12/05 10:40:55;;;;;;;0.60;0.60;;;;;;;11.77;48.14;97527.16;5032589;28;20147;-76
2023/12/05 10:43:24;;;;;;;0.70;0.70;;;;;;;11.24;49.64;97551.75;5035416;28;20495;-76
2023/12/05 10:45:50;;;;;;;0.68;0.68;;;;;;;10.95;50.88;97533.75;5040010;28;20028;-76
2023/12/05 10:48:17;;;;;;;0.70;0.70;;;;;;;11.61;49.25;97536.88;5035556;28;20041;-77
2023/12/05 10:50:44;;;;;;;0.70;0.70;;;;;;;12.52;46.31;97522.13;5035045;28;20506;-77
2023/12/05 10:53:09;;;;;;;0.60;0.60;;;;;;;11.96;47.38;97529.06;5033924;28;20116;-76
2023/12/05 10:55:35;;;;;;;0.50;0.50;;;;;;;12.11;47.72;97522.00;5034202;28;20628;-76
2023/12/05 10:58:02;;;;;;;0.57;0.57;;;;;;;11.66;48.77;97540.47;5035493;28;20107;-76
2023/12/05 11:00:30;;;;;;;0.50;0.50;;;;;;;10.11;52.52;97545.28;5035385;28;20618;-76
2023/12/05 11:02:57;;;;;;;0.55;0.55;;;;;;;9.63;53.83;97541.13;5034502;28;20538;-75
2023/12/05 11:05:24;;;;;;;0.75;0.75;;;;;;;11.46;50.35;97537.69;5033042;28;20067;-76
2023/12/05 11:07:50;;;;;;;0.77;0.77;;;;;;;11.99;47.44;97523.75;5034493;28;20041;-75
2023/12/05 11:10:17;;;;;;;0.70;0.70;;;;;;;11.84;48.72;97533.47;5034753;28;20044;-76
2023/12/05 11:12:45;;;;;;;0.70;0.70;;;;;;;11.44;48.76;97527.84;5033643;28;20100;-76
2023/12/05 11:15:15;;;;;;;0.60;0.60;;;;;;;11.25;49.95;97533.06;5063465;28;20060;-76
2023/12/05 11:17:47;;;;;;;0.50;0.50;;;;;;;12.26;47.79;97522.97;5032612;28;20037;-76
2023/12/05 11:20:32;;;;;;;0.50;0.50;;;;;;;11.02;51.64;97532.94;5035118;28;20478;-76
2023/12/05 11:23:39;;;;;;;0.70;0.70;;;;;;;12.45;46.85;97518.53;5033667;28;20638;-76
2023/12/05 11:26:42;;;;;;;0.60;0.60;;;;;;;11.09;50.53;97514.28;5029679;28;20054;-76
2023/12/05 11:29:37;;;;;;;0.70;0.70;;;;;;;13.77;43.61;97510.47;5065240;28;20039;-76
2023/12/05 11:32:28;;;;;;;0.40;0.40;;;;;;;11.47;49.13;97519.88;5036196;28;20629;-76
2023/12/05 11:34:59;;;;;;;0.65;0.65;;;;;;;9.59;53.82;97523.34;5034778;28;20073;-76
2023/12/05 11:38:08;;;;;;;0.70;0.70;;;;;;;11.19;52.21;97517.03;5061037;28;20037;-75
2023/12/05 11:40:34;;;;;;;0.70;0.70;;;;;;;13.49;45.74;97513.22;5033976;28;20406;-76
2023/12/05 11:43:10;;;;;;;0.60;0.60;;;;;;;12.12;47.35;97513.06;5035404;28;20037;-76